PWSweather.com
Personal Weather Stations
Station Observations
SELKIRK1
Ontario, Selkirk, ON N0A 1P0

OntarioSelkirk, ON N0A 1P0

Lat: 42.8083652, Lon: -79.94971040000001

Elevation: 583

Station Type: Acurite 5 in 1

http://gavinsurf.com

High Low Average
Temperature 77.0°F25.0°C 56.3°F13.5°C 64.6°F18.1°C
Dew Point 65.4°F18.6°C 48.5°F9.2°C 57.8°F14.3°C
Winds 5.8 mph 9.3 kmh Calm Calm 3.0 mph E4.8 kmh E
Wind Gusts 6.9 mph11.1 kmh -- 4.0 mph6.4 kmh
Humidity 99% 57% 79%
Pressure 31.86 in1078.9 mb 31.86 in1078.9 mb -
Precipitation 1.43 in36.3 mm - -
Hour Temp Dew Point Humidity Winds Wind Gusts Pressure Precip Precip Rate Daily Precip Total
12:00 AM 61.2°F16.2°C 48.5°F9.2°C 63% 4.6 mph E7.4 kmh E 5.8 mph9.3 kmh 31.86 in1078.9 mb - 0.00 in0.0 mm 0.00 in0.0 mm
12:10 AM 61.0°F16.1°C 48.7°F9.3°C 64% 3.5 mph E5.6 kmh E 4.6 mph7.4 kmh 31.86 in1078.9 mb - 0.00 in0.0 mm 0.00 in0.0 mm
12:15 AM 61.0°F16.1°C 48.7°F9.3°C 64% 3.5 mph E5.6 kmh E 3.5 mph5.6 kmh 31.86 in1078.9 mb - 0.00 in0.0 mm 0.00 in0.0 mm
12:20 AM 60.7°F15.9°C 48.9°F9.4°C 65% 3.5 mph E5.6 kmh E 4.6 mph7.4 kmh 31.86 in1078.9 mb - 0.00 in0.0 mm 0.00 in0.0 mm
12:25 AM 60.6°F15.9°C 48.7°F9.3°C 65% 3.5 mph E5.6 kmh E 4.6 mph7.4 kmh 31.86 in1078.9 mb - 0.00 in0.0 mm 0.00 in0.0 mm
12:30 AM 60.6°F15.9°C 48.7°F9.3°C 65% 3.5 mph E5.6 kmh E 3.5 mph5.6 kmh 31.86 in1078.9 mb - 0.00 in0.0 mm 0.00 in0.0 mm
12:35 AM 60.6°F15.9°C 49.2°F9.6°C 66% 2.3 mph E3.7 kmh E 2.3 mph3.7 kmh 31.86 in1078.9 mb - 0.00 in0.0 mm 0.00 in0.0 mm
12:40 AM 60.6°F15.9°C 49.2°F9.6°C 66% 2.3 mph E3.7 kmh E 2.3 mph3.7 kmh 31.86 in1078.9 mb - 0.00 in0.0 mm 0.00 in0.0 mm
12:45 AM 60.6°F15.9°C 49.2°F9.6°C 66% 2.3 mph E3.7 kmh E 2.3 mph3.7 kmh 31.86 in1078.9 mb - 0.00 in0.0 mm 0.00 in0.0 mm
12:50 AM 59.9°F15.5°C 49.3°F9.6°C 68% 2.3 mph E3.7 kmh E 3.5 mph5.6 kmh 31.86 in1078.9 mb - 0.00 in0.0 mm 0.00 in0.0 mm
12:55 AM 59.7°F15.4°C 49.5°F9.7°C 69% 3.5 mph E5.6 kmh E 3.5 mph5.6 kmh 31.86 in1078.9 mb - 0.00 in0.0 mm 0.00 in0.0 mm
01:00 AM 59.6°F15.3°C 49.4°F9.7°C 69% 3.5 mph E5.6 kmh E 4.6 mph7.4 kmh 31.86 in1078.9 mb - 0.00 in0.0 mm 0.00 in0.0 mm
01:10 AM 59.4°F15.2°C 50.0°F10.0°C 71% 3.5 mph E5.6 kmh E 3.5 mph5.6 kmh 31.86 in1078.9 mb - 0.00 in0.0 mm 0.00 in0.0 mm
01:15 AM 59.4°F15.2°C 50.0°F10.0°C 71% 3.5 mph E5.6 kmh E 4.6 mph7.4 kmh 31.86 in1078.9 mb - 0.00 in0.0 mm 0.00 in0.0 mm
01:20 AM 59.4°F15.2°C 50.0°F10.0°C 71% 3.5 mph E5.6 kmh E 4.6 mph7.4 kmh 31.86 in1078.9 mb - 0.00 in0.0 mm 0.00 in0.0 mm
01:25 AM 59.4°F15.2°C 50.0°F10.0°C 71% 3.5 mph E5.6 kmh E 4.6 mph7.4 kmh 31.86 in1078.9 mb - 0.00 in0.0 mm 0.00 in0.0 mm
01:30 AM 59.2°F15.1°C 50.2°F10.1°C 72% 3.5 mph E5.6 kmh E 3.5 mph5.6 kmh 31.86 in1078.9 mb - 0.00 in0.0 mm 0.00 in0.0 mm
01:35 AM 59.2°F15.1°C 50.2°F10.1°C 72% 2.3 mph E3.7 kmh E 3.5 mph5.6 kmh 31.86 in1078.9 mb - 0.00 in0.0 mm 0.00 in0.0 mm
01:40 AM 59.0°F15.0°C 50.3°F10.2°C 73% 3.5 mph ENE5.6 kmh ENE 3.5 mph5.6 kmh 31.86 in1078.9 mb - 0.00 in0.0 mm 0.00 in0.0 mm
01:45 AM 59.0°F15.0°C 50.3°F10.2°C 73% 3.5 mph E5.6 kmh E 3.5 mph5.6 kmh 31.86 in1078.9 mb - 0.00 in0.0 mm 0.00 in0.0 mm
01:50 AM 59.0°F15.0°C 50.7°F10.4°C 74% 3.5 mph E5.6 kmh E 3.5 mph5.6 kmh 31.86 in1078.9 mb - 0.00 in0.0 mm 0.00 in0.0 mm
01:55 AM 59.0°F15.0°C 50.7°F10.4°C 74% 2.3 mph E3.7 kmh E 3.5 mph5.6 kmh 31.86 in1078.9 mb - 0.00 in0.0 mm 0.00 in0.0 mm
02:00 AM 58.8°F14.9°C 50.5°F10.3°C 74% 2.3 mph ESE3.7 kmh ESE 3.5 mph5.6 kmh 31.86 in1078.9 mb - 0.00 in0.0 mm 0.00 in0.0 mm
02:10 AM 58.7°F14.8°C 50.8°F10.4°C 75% 3.5 mph E5.6 kmh E 3.5 mph5.6 kmh 31.86 in1078.9 mb - 0.00 in0.0 mm 0.00 in0.0 mm
02:15 AM 58.5°F14.7°C 50.6°F10.3°C 75% 2.3 mph E3.7 kmh E 3.5 mph5.6 kmh 31.86 in1078.9 mb - 0.00 in0.0 mm 0.00 in0.0 mm
02:20 AM 58.1°F14.5°C 50.2°F10.1°C 75% 2.3 mph ENE3.7 kmh ENE 3.5 mph5.6 kmh 31.86 in1078.9 mb - 0.00 in0.0 mm 0.00 in0.0 mm
02:25 AM 57.8°F14.3°C 50.3°F10.2°C 76% 2.3 mph E3.7 kmh E 2.3 mph3.7 kmh 31.86 in1078.9 mb - 0.00 in0.0 mm 0.00 in0.0 mm
02:30 AM 57.6°F14.2°C 50.1°F10.1°C 76% 2.3 mph ENE3.7 kmh ENE 1.2 mph1.9 kmh 31.86 in1078.9 mb - 0.00 in0.0 mm 0.00 in0.0 mm
02:35 AM 57.2°F14.0°C 50.0°F10.0°C 77% 2.3 mph E3.7 kmh E 2.3 mph3.7 kmh 31.86 in1078.9 mb - 0.00 in0.0 mm 0.00 in0.0 mm
02:40 AM 56.9°F13.8°C 50.1°F10.1°C 78% 2.3 mph E3.7 kmh E 2.3 mph3.7 kmh 31.86 in1078.9 mb - 0.00 in0.0 mm 0.00 in0.0 mm
02:45 AM 56.7°F13.7°C 49.9°F9.9°C 78% 2.3 mph E3.7 kmh E 2.3 mph3.7 kmh 31.86 in1078.9 mb - 0.00 in0.0 mm 0.00 in0.0 mm
02:50 AM 56.7°F13.7°C 49.9°F9.9°C 78% 2.3 mph E3.7 kmh E 3.5 mph5.6 kmh 31.86 in1078.9 mb - 0.00 in0.0 mm 0.00 in0.0 mm
02:55 AM 56.5°F13.6°C 49.7°F9.8°C 78% 2.3 mph E3.7 kmh E 2.3 mph3.7 kmh 31.86 in1078.9 mb - 0.00 in0.0 mm 0.00 in0.0 mm
03:00 AM 56.5°F13.6°C 49.7°F9.8°C 78% 2.3 mph E3.7 kmh E 2.3 mph3.7 kmh 31.86 in1078.9 mb - 0.00 in0.0 mm 0.00 in0.0 mm
03:10 AM 56.3°F13.5°C 49.8°F9.9°C 79% 2.3 mph ENE3.7 kmh ENE 3.5 mph5.6 kmh 31.86 in1078.9 mb - 0.00 in0.0 mm 0.00 in0.0 mm
03:15 AM 56.3°F13.5°C 49.8°F9.9°C 79% 3.5 mph E5.6 kmh E 3.5 mph5.6 kmh 31.86 in1078.9 mb - 0.00 in0.0 mm 0.00 in0.0 mm
03:20 AM 56.3°F13.5°C 49.8°F9.9°C 79% 3.5 mph ENE5.6 kmh ENE 3.5 mph5.6 kmh 31.86 in1078.9 mb - 0.00 in0.0 mm 0.00 in0.0 mm
03:25 AM 56.7°F13.7°C 50.2°F10.1°C 79% 2.3 mph E3.7 kmh E 3.5 mph5.6 kmh 31.86 in1078.9 mb - 0.00 in0.0 mm 0.00 in0.0 mm
03:30 AM 56.9°F13.8°C 50.4°F10.2°C 79% 3.5 mph E5.6 kmh E 3.5 mph5.6 kmh 31.86 in1078.9 mb - 0.00 in0.0 mm 0.00 in0.0 mm
03:35 AM 56.9°F13.8°C 50.1°F10.1°C 78% 3.5 mph E5.6 kmh E 3.5 mph5.6 kmh 31.86 in1078.9 mb - 0.00 in0.0 mm 0.00 in0.0 mm
03:40 AM 56.9°F13.8°C 50.1°F10.1°C 78% 3.5 mph ENE5.6 kmh ENE 3.5 mph5.6 kmh 31.86 in1078.9 mb - 0.00 in0.0 mm 0.00 in0.0 mm
03:45 AM 56.9°F13.8°C 50.1°F10.1°C 78% 2.3 mph E3.7 kmh E 2.3 mph3.7 kmh 31.86 in1078.9 mb - 0.00 in0.0 mm 0.00 in0.0 mm
03:50 AM 56.7°F13.7°C 49.9°F9.9°C 78% 3.5 mph ENE5.6 kmh ENE 3.5 mph5.6 kmh 31.86 in1078.9 mb - 0.00 in0.0 mm 0.00 in0.0 mm
03:55 AM 56.7°F13.7°C 49.9°F9.9°C 78% 2.3 mph E3.7 kmh E 2.3 mph3.7 kmh 31.86 in1078.9 mb - 0.00 in0.0 mm 0.00 in0.0 mm
04:00 AM 56.7°F13.7°C 49.9°F9.9°C 78% 2.3 mph E3.7 kmh E 2.3 mph3.7 kmh 31.86 in1078.9 mb - 0.00 in0.0 mm 0.00 in0.0 mm
04:10 AM 56.7°F13.7°C 49.9°F9.9°C 78% 3.5 mph E5.6 kmh E 3.5 mph5.6 kmh 31.86 in1078.9 mb - 0.00 in0.0 mm 0.00 in0.0 mm
04:15 AM 56.7°F13.7°C 49.9°F9.9°C 78% 3.5 mph E5.6 kmh E 3.5 mph5.6 kmh 31.86 in1078.9 mb - 0.00 in0.0 mm 0.00 in0.0 mm
04:20 AM 56.7°F13.7°C 50.2°F10.1°C 79% 3.5 mph E5.6 kmh E 4.6 mph7.4 kmh 31.86 in1078.9 mb - 0.00 in0.0 mm 0.00 in0.0 mm
04:25 AM 56.7°F13.7°C 49.9°F9.9°C 78% 3.5 mph E5.6 kmh E 3.5 mph5.6 kmh 31.86 in1078.9 mb - 0.00 in0.0 mm 0.00 in0.0 mm
04:30 AM 56.5°F13.6°C 49.7°F9.8°C 78% 3.5 mph E5.6 kmh E 3.5 mph5.6 kmh 31.86 in1078.9 mb - 0.00 in0.0 mm 0.00 in0.0 mm
04:35 AM 56.3°F13.5°C 49.8°F9.9°C 79% 2.3 mph E3.7 kmh E 3.5 mph5.6 kmh 31.86 in1078.9 mb - 0.00 in0.0 mm 0.00 in0.0 mm
04:40 AM 56.3°F13.5°C 49.8°F9.9°C 79% 3.5 mph E5.6 kmh E 3.5 mph5.6 kmh 31.86 in1078.9 mb - 0.00 in0.0 mm 0.00 in0.0 mm
04:45 AM 56.3°F13.5°C 49.8°F9.9°C 79% 3.5 mph E5.6 kmh E 3.5 mph5.6 kmh 31.86 in1078.9 mb - 0.00 in0.0 mm 0.00 in0.0 mm
04:50 AM 56.5°F13.6°C 49.7°F9.8°C 78% 3.5 mph E5.6 kmh E 3.5 mph5.6 kmh 31.86 in1078.9 mb - 0.00 in0.0 mm 0.00 in0.0 mm
04:55 AM 56.5°F13.6°C 49.7°F9.8°C 78% 2.3 mph E3.7 kmh E 3.5 mph5.6 kmh 31.86 in1078.9 mb - 0.00 in0.0 mm 0.00 in0.0 mm
05:00 AM 56.9°F13.8°C 50.1°F10.1°C 78% 2.3 mph ENE3.7 kmh ENE 3.5 mph5.6 kmh 31.86 in1078.9 mb - 0.00 in0.0 mm 0.00 in0.0 mm
05:10 AM 57.4°F14.1°C 49.9°F9.9°C 76% 3.5 mph E5.6 kmh E 3.5 mph5.6 kmh 31.86 in1078.9 mb - 0.00 in0.0 mm 0.00 in0.0 mm
05:15 AM 57.9°F14.4°C 50.0°F10.0°C 75% 3.5 mph E5.6 kmh E 4.6 mph7.4 kmh 31.86 in1078.9 mb - 0.00 in0.0 mm 0.00 in0.0 mm
05:20 AM 57.9°F14.4°C 50.0°F10.0°C 75% 3.5 mph E5.6 kmh E 3.5 mph5.6 kmh 31.86 in1078.9 mb - 0.00 in0.0 mm 0.00 in0.0 mm
05:25 AM 57.9°F14.4°C 50.0°F10.0°C 75% 3.5 mph E5.6 kmh E 4.6 mph7.4 kmh 31.86 in1078.9 mb - 0.00 in0.0 mm 0.00 in0.0 mm
05:30 AM 57.9°F14.4°C 50.0°F10.0°C 75% 3.5 mph E5.6 kmh E 4.6 mph7.4 kmh 31.86 in1078.9 mb - 0.00 in0.0 mm 0.00 in0.0 mm
05:35 AM 58.1°F14.5°C 50.2°F10.1°C 75% 3.5 mph E5.6 kmh E 3.5 mph5.6 kmh 31.86 in1078.9 mb - 0.00 in0.0 mm 0.00 in0.0 mm
05:40 AM 58.7°F14.8°C 50.8°F10.4°C 75% 3.5 mph E5.6 kmh E 4.6 mph7.4 kmh 31.86 in1078.9 mb - 0.00 in0.0 mm 0.00 in0.0 mm
05:45 AM 59.3°F15.2°C 50.6°F10.3°C 73% 4.6 mph ENE7.4 kmh ENE 6.9 mph11.1 kmh 31.86 in1078.9 mb - 0.00 in0.0 mm 0.00 in0.0 mm
05:50 AM 59.4°F15.2°C 50.7°F10.4°C 73% 4.6 mph E7.4 kmh E 5.8 mph9.3 kmh 31.86 in1078.9 mb - 0.00 in0.0 mm 0.00 in0.0 mm
05:55 AM 59.4°F15.2°C 50.7°F10.4°C 73% 3.5 mph E5.6 kmh E 4.6 mph7.4 kmh 31.86 in1078.9 mb - 0.00 in0.0 mm 0.00 in0.0 mm
06:00 AM 59.4°F15.2°C 50.7°F10.4°C 73% 4.6 mph E7.4 kmh E 5.8 mph9.3 kmh 31.86 in1078.9 mb - 0.00 in0.0 mm 0.00 in0.0 mm
06:10 AM 59.4°F15.2°C 51.1°F10.6°C 74% 3.5 mph E5.6 kmh E 4.6 mph7.4 kmh 31.86 in1078.9 mb - 0.00 in0.0 mm 0.00 in0.0 mm
06:15 AM 59.4°F15.2°C 51.1°F10.6°C 74% 3.5 mph E5.6 kmh E 3.5 mph5.6 kmh 31.86 in1078.9 mb - 0.00 in0.0 mm 0.00 in0.0 mm
06:20 AM 59.4°F15.2°C 51.1°F10.6°C 74% 4.6 mph E7.4 kmh E 4.6 mph7.4 kmh 31.86 in1078.9 mb - 0.00 in0.0 mm 0.00 in0.0 mm
06:25 AM 59.7°F15.4°C 51.0°F10.6°C 73% 4.6 mph E7.4 kmh E 5.8 mph9.3 kmh 31.86 in1078.9 mb - 0.00 in0.0 mm 0.00 in0.0 mm
06:30 AM 59.9°F15.5°C 51.2°F10.7°C 73% 4.6 mph E7.4 kmh E 4.6 mph7.4 kmh 31.86 in1078.9 mb - 0.00 in0.0 mm 0.00 in0.0 mm
06:35 AM 60.2°F15.7°C 51.5°F10.8°C 73% 3.5 mph E5.6 kmh E 4.6 mph7.4 kmh 31.86 in1078.9 mb - 0.00 in0.0 mm 0.00 in0.0 mm
06:40 AM 60.7°F15.9°C 51.6°F10.9°C 72% 4.6 mph E7.4 kmh E 4.6 mph7.4 kmh 31.86 in1078.9 mb - 0.00 in0.0 mm 0.00 in0.0 mm
06:45 AM 61.4°F16.3°C 51.9°F11.1°C 71% 4.6 mph E7.4 kmh E 4.6 mph7.4 kmh 31.86 in1078.9 mb - 0.00 in0.0 mm 0.00 in0.0 mm
06:50 AM 62.3°F16.8°C 52.7°F11.5°C 71% 4.6 mph E7.4 kmh E 4.6 mph7.4 kmh 31.86 in1078.9 mb - 0.00 in0.0 mm 0.00 in0.0 mm
06:55 AM 62.4°F16.9°C 52.5°F11.4°C 70% 4.6 mph E7.4 kmh E 4.6 mph7.4 kmh 31.86 in1078.9 mb - 0.00 in0.0 mm 0.00 in0.0 mm
07:00 AM 61.9°F16.6°C 52.0°F11.1°C 70% 4.6 mph E7.4 kmh E 4.6 mph7.4 kmh 31.86 in1078.9 mb - 0.00 in0.0 mm 0.00 in0.0 mm
07:10 AM 61.7°F16.5°C 51.8°F11.0°C 70% 3.5 mph ESE5.6 kmh ESE 4.6 mph7.4 kmh 31.86 in1078.9 mb - 0.00 in0.0 mm 0.00 in0.0 mm
07:15 AM 62.0°F16.7°C 52.1°F11.2°C 70% 3.5 mph E5.6 kmh E 4.6 mph7.4 kmh 31.86 in1078.9 mb - 0.00 in0.0 mm 0.00 in0.0 mm
07:20 AM 62.3°F16.8°C 52.4°F11.3°C 70% 4.6 mph E7.4 kmh E 5.8 mph9.3 kmh 31.86 in1078.9 mb - 0.00 in0.0 mm 0.00 in0.0 mm
07:25 AM 62.9°F17.2°C 52.1°F11.2°C 68% 3.5 mph E5.6 kmh E 5.8 mph9.3 kmh 31.86 in1078.9 mb - 0.00 in0.0 mm 0.00 in0.0 mm
07:30 AM 63.4°F17.4°C 53.0°F11.7°C 69% 3.5 mph E5.6 kmh E 4.6 mph7.4 kmh 31.86 in1078.9 mb - 0.00 in0.0 mm 0.00 in0.0 mm
07:35 AM 63.5°F17.5°C 52.7°F11.5°C 68% 3.5 mph E5.6 kmh E 3.5 mph5.6 kmh 31.86 in1078.9 mb - 0.00 in0.0 mm 0.00 in0.0 mm
07:40 AM 63.5°F17.5°C 52.7°F11.5°C 68% 4.6 mph E7.4 kmh E 5.8 mph9.3 kmh 31.86 in1078.9 mb - 0.00 in0.0 mm 0.00 in0.0 mm
07:45 AM 63.7°F17.6°C 52.9°F11.6°C 68% 3.5 mph E5.6 kmh E 4.6 mph7.4 kmh 31.86 in1078.9 mb - 0.00 in0.0 mm 0.00 in0.0 mm
07:50 AM 63.5°F17.5°C 52.3°F11.3°C 67% 4.6 mph E7.4 kmh E 5.8 mph9.3 kmh 31.86 in1078.9 mb - 0.00 in0.0 mm 0.00 in0.0 mm
07:55 AM 63.5°F17.5°C 52.7°F11.5°C 68% 3.5 mph E5.6 kmh E 3.5 mph5.6 kmh 31.86 in1078.9 mb - 0.00 in0.0 mm 0.00 in0.0 mm
08:00 AM 63.5°F17.5°C 52.7°F11.5°C 68% 3.5 mph E5.6 kmh E 4.6 mph7.4 kmh 31.86 in1078.9 mb - 0.00 in0.0 mm 0.00 in0.0 mm
08:10 AM 64.1°F17.8°C 52.9°F11.6°C 67% 3.5 mph E5.6 kmh E 3.5 mph5.6 kmh 31.86 in1078.9 mb - 0.00 in0.0 mm 0.00 in0.0 mm
08:15 AM 64.2°F17.9°C 52.6°F11.4°C 66% 4.6 mph ESE7.4 kmh ESE 5.8 mph9.3 kmh 31.86 in1078.9 mb - 0.00 in0.0 mm 0.00 in0.0 mm
08:20 AM 64.2°F17.9°C 53.0°F11.7°C 67% 3.5 mph E5.6 kmh E 4.6 mph7.4 kmh 31.86 in1078.9 mb - 0.00 in0.0 mm 0.00 in0.0 mm
08:25 AM 64.4°F18.0°C 53.2°F11.8°C 67% 3.5 mph E5.6 kmh E 3.5 mph5.6 kmh 31.86 in1078.9 mb - 0.00 in0.0 mm 0.00 in0.0 mm
08:30 AM 64.6°F18.1°C 53.0°F11.7°C 66% 3.5 mph E5.6 kmh E 3.5 mph5.6 kmh 31.86 in1078.9 mb - 0.00 in0.0 mm 0.00 in0.0 mm
08:35 AM 64.8°F18.2°C 53.2°F11.8°C 66% 3.5 mph E5.6 kmh E 3.5 mph5.6 kmh 31.86 in1078.9 mb - 0.00 in0.0 mm 0.00 in0.0 mm
08:40 AM 65.1°F18.4°C 53.4°F11.9°C 66% 3.5 mph E5.6 kmh E 4.6 mph7.4 kmh 31.86 in1078.9 mb - 0.00 in0.0 mm 0.00 in0.0 mm
08:45 AM 65.3°F18.5°C 53.6°F12.0°C 66% 3.5 mph E5.6 kmh E 4.6 mph7.4 kmh 31.86 in1078.9 mb - 0.00 in0.0 mm 0.00 in0.0 mm
08:50 AM 65.5°F18.6°C 53.8°F12.1°C 66% 3.5 mph E5.6 kmh E 3.5 mph5.6 kmh 31.86 in1078.9 mb - 0.00 in0.0 mm 0.00 in0.0 mm
08:55 AM 65.7°F18.7°C 54.0°F12.2°C 66% 3.5 mph E5.6 kmh E 4.6 mph7.4 kmh 31.86 in1078.9 mb - 0.00 in0.0 mm 0.00 in0.0 mm
09:00 AM 65.9°F18.8°C 54.2°F12.3°C 66% 3.5 mph E5.6 kmh E 4.6 mph7.4 kmh 31.86 in1078.9 mb - 0.00 in0.0 mm 0.00 in0.0 mm
09:10 AM 65.9°F18.8°C 54.2°F12.3°C 66% 3.5 mph E5.6 kmh E 4.6 mph7.4 kmh 31.86 in1078.9 mb - 0.00 in0.0 mm 0.00 in0.0 mm
09:15 AM 66.0°F18.9°C 53.9°F12.2°C 65% 4.6 mph E7.4 kmh E 5.8 mph9.3 kmh 31.86 in1078.9 mb - 0.00 in0.0 mm 0.00 in0.0 mm
09:20 AM 66.2°F19.0°C 54.1°F12.3°C 65% 3.5 mph E5.6 kmh E 4.6 mph7.4 kmh 31.86 in1078.9 mb - 0.00 in0.0 mm 0.00 in0.0 mm
09:25 AM 66.4°F19.1°C 53.8°F12.1°C 64% 4.6 mph E7.4 kmh E 5.8 mph9.3 kmh 31.86 in1078.9 mb - 0.00 in0.0 mm 0.00 in0.0 mm
09:30 AM 66.8°F19.3°C 53.8°F12.1°C 63% 4.6 mph E7.4 kmh E 5.8 mph9.3 kmh 31.86 in1078.9 mb - 0.00 in0.0 mm 0.00 in0.0 mm
09:35 AM 67.1°F19.5°C 54.1°F12.3°C 63% 4.6 mph E7.4 kmh E 5.8 mph9.3 kmh 31.86 in1078.9 mb - 0.00 in0.0 mm 0.00 in0.0 mm
09:40 AM 67.7°F19.8°C 54.2°F12.3°C 62% 4.6 mph E7.4 kmh E 4.6 mph7.4 kmh 31.86 in1078.9 mb - 0.00 in0.0 mm 0.00 in0.0 mm
09:45 AM 68.0°F20.0°C 54.9°F12.7°C 63% 4.6 mph E7.4 kmh E 4.6 mph7.4 kmh 31.86 in1078.9 mb - 0.00 in0.0 mm 0.00 in0.0 mm
09:50 AM 68.6°F20.3°C 55.1°F12.8°C 62% 5.8 mph E9.3 kmh E 5.8 mph9.3 kmh 31.86 in1078.9 mb - 0.00 in0.0 mm 0.00 in0.0 mm
09:55 AM 69.6°F20.9°C 56.0°F13.3°C 62% 4.6 mph E7.4 kmh E 5.8 mph9.3 kmh 31.86 in1078.9 mb - 0.00 in0.0 mm 0.00 in0.0 mm
10:00 AM 70.6°F21.4°C 56.5°F13.6°C 61% 3.5 mph E5.6 kmh E 4.6 mph7.4 kmh 31.86 in1078.9 mb - 0.00 in0.0 mm 0.00 in0.0 mm
10:10 AM 71.7°F22.1°C 56.6°F13.7°C 59% 3.5 mph E5.6 kmh E 3.5 mph5.6 kmh 31.86 in1078.9 mb - 0.00 in0.0 mm 0.00 in0.0 mm
10:15 AM 72.5°F22.5°C 58.3°F14.6°C 61% 3.5 mph E5.6 kmh E 3.5 mph5.6 kmh 31.86 in1078.9 mb - 0.00 in0.0 mm 0.00 in0.0 mm
10:20 AM 72.9°F22.7°C 58.6°F14.8°C 61% 3.5 mph ENE5.6 kmh ENE 4.6 mph7.4 kmh 31.86 in1078.9 mb - 0.00 in0.0 mm 0.00 in0.0 mm
10:25 AM 73.1°F22.8°C 57.9°F14.4°C 59% 4.6 mph E7.4 kmh E 4.6 mph7.4 kmh 31.86 in1078.9 mb - 0.00 in0.0 mm 0.00 in0.0 mm
10:30 AM 72.3°F22.4°C 58.1°F14.5°C 61% 3.5 mph ENE5.6 kmh ENE 3.5 mph5.6 kmh 31.86 in1078.9 mb - 0.00 in0.0 mm 0.00 in0.0 mm
10:35 AM 72.2°F22.3°C 57.5°F14.2°C 60% 3.5 mph ENE5.6 kmh ENE 4.6 mph7.4 kmh 31.86 in1078.9 mb - 0.00 in0.0 mm 0.00 in0.0 mm
10:40 AM 72.6°F22.6°C 58.3°F14.6°C 61% 3.5 mph ENE5.6 kmh ENE 3.5 mph5.6 kmh 31.86 in1078.9 mb - 0.00 in0.0 mm 0.00 in0.0 mm
10:45 AM 72.4°F22.4°C 58.6°F14.8°C 62% 4.6 mph E7.4 kmh E 4.6 mph7.4 kmh 31.86 in1078.9 mb - 0.00 in0.0 mm 0.00 in0.0 mm
10:50 AM 73.1°F22.8°C 59.3°F15.2°C 62% 3.5 mph E5.6 kmh E 3.5 mph5.6 kmh 31.86 in1078.9 mb - 0.00 in0.0 mm 0.00 in0.0 mm
10:55 AM 74.3°F23.5°C 59.5°F15.3°C 60% 3.5 mph NE5.6 kmh NE 4.6 mph7.4 kmh 31.86 in1078.9 mb - 0.00 in0.0 mm 0.00 in0.0 mm
11:00 AM 75.4°F24.1°C 60.1°F15.6°C 59% 4.6 mph E7.4 kmh E 5.8 mph9.3 kmh 31.86 in1078.9 mb - 0.00 in0.0 mm 0.00 in0.0 mm
11:10 AM 74.7°F23.7°C 60.3°F15.7°C 61% 4.6 mph E7.4 kmh E 4.6 mph7.4 kmh 31.86 in1078.9 mb - 0.00 in0.0 mm 0.00 in0.0 mm
11:15 AM 75.7°F24.3°C 60.8°F16.0°C 60% 3.5 mph SE5.6 kmh SE 4.6 mph7.4 kmh 31.86 in1078.9 mb - 0.00 in0.0 mm 0.00 in0.0 mm
11:20 AM 76.4°F24.7°C 60.0°F15.6°C 57% 3.5 mph E5.6 kmh E 5.8 mph9.3 kmh 31.86 in1078.9 mb - 0.00 in0.0 mm 0.00 in0.0 mm
11:25 AM 76.1°F24.5°C 60.2°F15.7°C 58% 4.6 mph E7.4 kmh E 4.6 mph7.4 kmh 31.86 in1078.9 mb - 0.00 in0.0 mm 0.00 in0.0 mm
11:30 AM 75.8°F24.3°C 60.0°F15.6°C 58% 3.5 mph E5.6 kmh E 5.8 mph9.3 kmh 31.86 in1078.9 mb - 0.00 in0.0 mm 0.00 in0.0 mm
11:35 AM 76.4°F24.7°C 60.6°F15.9°C 58% 4.6 mph E7.4 kmh E 5.8 mph9.3 kmh 31.86 in1078.9 mb - 0.00 in0.0 mm 0.00 in0.0 mm
11:40 AM 77.0°F25.0°C 61.1°F16.2°C 58% 3.5 mph E5.6 kmh E 3.5 mph5.6 kmh 31.86 in1078.9 mb - 0.00 in0.0 mm 0.00 in0.0 mm
11:45 AM 76.5°F24.7°C 61.1°F16.2°C 59% 3.5 mph ESE5.6 kmh ESE 4.6 mph7.4 kmh 31.86 in1078.9 mb - 0.00 in0.0 mm 0.00 in0.0 mm
11:50 AM 75.0°F23.9°C 60.2°F15.7°C 60% 3.5 mph E5.6 kmh E 3.5 mph5.6 kmh 31.86 in1078.9 mb - 0.00 in0.0 mm 0.00 in0.0 mm
11:55 AM 74.6°F23.7°C 59.8°F15.4°C 60% 4.6 mph ESE7.4 kmh ESE 4.6 mph7.4 kmh 31.86 in1078.9 mb - 0.00 in0.0 mm 0.00 in0.0 mm
12:00 PM 74.3°F23.5°C 60.0°F15.6°C 61% 3.5 mph E5.6 kmh E 3.5 mph5.6 kmh 31.86 in1078.9 mb - 0.00 in0.0 mm 0.00 in0.0 mm
12:10 PM 74.0°F23.3°C 61.1°F16.2°C 64% 3.5 mph E5.6 kmh E 3.5 mph5.6 kmh 31.86 in1078.9 mb - 0.00 in0.0 mm 0.00 in0.0 mm
12:15 PM 73.6°F23.1°C 61.5°F16.4°C 66% 3.5 mph ESE5.6 kmh ESE 3.5 mph5.6 kmh 31.86 in1078.9 mb - 0.00 in0.0 mm 0.00 in0.0 mm
12:20 PM 73.4°F23.0°C 60.5°F15.8°C 64% 3.5 mph E5.6 kmh E 3.5 mph5.6 kmh 31.86 in1078.9 mb - 0.00 in0.0 mm 0.00 in0.0 mm
12:25 PM 73.0°F22.8°C 60.1°F15.6°C 64% 3.5 mph E5.6 kmh E 4.6 mph7.4 kmh 31.86 in1078.9 mb - 0.00 in0.0 mm 0.00 in0.0 mm
12:30 PM 72.4°F22.4°C 60.0°F15.6°C 65% 3.5 mph E5.6 kmh E 4.6 mph7.4 kmh 31.86 in1078.9 mb - 0.00 in0.0 mm 0.00 in0.0 mm
12:35 PM 72.0°F22.2°C 59.6°F15.3°C 65% 3.5 mph E5.6 kmh E 4.6 mph7.4 kmh 31.86 in1078.9 mb - 0.00 in0.0 mm 0.00 in0.0 mm
12:40 PM 71.4°F21.9°C 59.4°F15.2°C 66% 4.6 mph E7.4 kmh E 5.8 mph9.3 kmh 31.86 in1078.9 mb - 0.00 in0.0 mm 0.00 in0.0 mm
12:45 PM 71.3°F21.8°C 59.8°F15.4°C 67% 3.5 mph E5.6 kmh E 4.6 mph7.4 kmh 31.86 in1078.9 mb - 0.00 in0.0 mm 0.00 in0.0 mm
12:50 PM 71.4°F21.9°C 60.7°F15.9°C 69% 3.5 mph E5.6 kmh E 4.6 mph7.4 kmh 31.86 in1078.9 mb - 0.00 in0.0 mm 0.00 in0.0 mm
12:55 PM 71.4°F21.9°C 60.7°F15.9°C 69% 3.5 mph E5.6 kmh E 4.6 mph7.4 kmh 31.86 in1078.9 mb - 0.00 in0.0 mm 0.00 in0.0 mm
01:00 PM 71.6°F22.0°C 60.5°F15.8°C 68% 3.5 mph E5.6 kmh E 3.5 mph5.6 kmh 31.86 in1078.9 mb - 0.00 in0.0 mm 0.00 in0.0 mm
01:10 PM 72.0°F22.2°C 60.0°F15.6°C 66% 3.5 mph E5.6 kmh E 3.5 mph5.6 kmh 31.86 in1078.9 mb - 0.00 in0.0 mm 0.00 in0.0 mm
01:15 PM 72.4°F22.4°C 60.8°F16.0°C 67% 3.5 mph E5.6 kmh E 3.5 mph5.6 kmh 31.86 in1078.9 mb - 0.00 in0.0 mm 0.00 in0.0 mm
01:20 PM 72.7°F22.6°C 61.1°F16.2°C 67% 2.3 mph E3.7 kmh E 2.3 mph3.7 kmh 31.86 in1078.9 mb - 0.00 in0.0 mm 0.00 in0.0 mm
01:25 PM 72.3°F22.4°C 61.5°F16.4°C 69% 2.3 mph E3.7 kmh E 2.3 mph3.7 kmh 31.86 in1078.9 mb - 0.00 in0.0 mm 0.00 in0.0 mm
01:30 PM 72.0°F22.2°C 62.5°F16.9°C 72% 2.3 mph ESE3.7 kmh ESE 3.5 mph5.6 kmh 31.86 in1078.9 mb - 0.00 in0.0 mm 0.00 in0.0 mm
01:35 PM 71.6°F22.0°C 62.5°F16.9°C 73% 2.3 mph E3.7 kmh E 2.3 mph3.7 kmh 31.86 in1078.9 mb - 0.00 in0.0 mm 0.00 in0.0 mm
01:40 PM 71.3°F21.8°C 62.9°F17.2°C 75% 2.3 mph ESE3.7 kmh ESE 2.3 mph3.7 kmh 31.86 in1078.9 mb - 0.00 in0.0 mm 0.00 in0.0 mm
01:45 PM 70.9°F21.6°C 63.3°F17.4°C 77% 2.3 mph ESE3.7 kmh ESE 2.3 mph3.7 kmh 31.86 in1078.9 mb - 0.00 in0.0 mm 0.00 in0.0 mm
01:50 PM 70.6°F21.4°C 63.8°F17.7°C 79% 2.3 mph E3.7 kmh E 3.5 mph5.6 kmh 31.86 in1078.9 mb - 0.00 in0.0 mm 0.00 in0.0 mm
01:55 PM 69.6°F20.9°C 64.5°F18.1°C 84% 2.3 mph E3.7 kmh E 2.3 mph3.7 kmh 31.86 in1078.9 mb - 0.00 in0.0 mm 0.00 in0.0 mm
02:00 PM 69.5°F20.8°C 64.4°F18.0°C 84% 2.3 mph E3.7 kmh E 3.5 mph5.6 kmh 31.86 in1078.9 mb - 0.01 in0.3 mm 0.01 in0.3 mm
02:10 PM 67.7°F19.8°C 63.4°F17.4°C 86% 2.3 mph NNE3.7 kmh NNE 2.3 mph3.7 kmh 31.86 in1078.9 mb - 0.02 in0.5 mm 0.02 in0.5 mm
02:15 PM 67.5°F19.7°C 63.5°F17.5°C 87% 2.3 mph NE3.7 kmh NE 3.5 mph5.6 kmh 31.86 in1078.9 mb - 0.02 in0.5 mm 0.02 in0.5 mm
02:20 PM 67.5°F19.7°C 63.5°F17.5°C 87% 3.5 mph NE5.6 kmh NE 4.6 mph7.4 kmh 31.86 in1078.9 mb - 0.02 in0.5 mm 0.02 in0.5 mm
02:25 PM 67.5°F19.7°C 63.5°F17.5°C 87% 2.3 mph NE3.7 kmh NE 4.6 mph7.4 kmh 31.86 in1078.9 mb - 0.02 in0.5 mm 0.02 in0.5 mm
02:30 PM 67.4°F19.7°C 63.4°F17.4°C 87% 4.6 mph ENE7.4 kmh ENE 6.9 mph11.1 kmh 31.86 in1078.9 mb - 0.02 in0.5 mm 0.02 in0.5 mm
02:35 PM 67.3°F19.6°C 63.3°F17.4°C 87% 3.5 mph NE5.6 kmh NE 3.5 mph5.6 kmh 31.86 in1078.9 mb - 0.02 in0.5 mm 0.02 in0.5 mm
02:40 PM 67.4°F19.7°C 63.0°F17.2°C 86% 3.5 mph ENE5.6 kmh ENE 3.5 mph5.6 kmh 31.86 in1078.9 mb - 0.02 in0.5 mm 0.02 in0.5 mm
02:45 PM 67.7°F19.8°C 63.0°F17.2°C 85% 3.5 mph NNE5.6 kmh NNE 4.6 mph7.4 kmh 31.86 in1078.9 mb - 0.02 in0.5 mm 0.02 in0.5 mm
02:50 PM 68.0°F20.0°C 63.0°F17.2°C 84% 3.5 mph NE5.6 kmh NE 5.8 mph9.3 kmh 31.86 in1078.9 mb - 0.02 in0.5 mm 0.02 in0.5 mm
02:55 PM 68.2°F20.1°C 62.8°F17.1°C 83% 3.5 mph NE5.6 kmh NE 4.6 mph7.4 kmh 31.86 in1078.9 mb - 0.02 in0.5 mm 0.02 in0.5 mm
03:00 PM 67.5°F19.7°C 62.8°F17.1°C 85% 3.5 mph ESE5.6 kmh ESE 4.6 mph7.4 kmh 31.86 in1078.9 mb - 0.01 in0.3 mm 0.02 in0.5 mm
03:10 PM 67.1°F19.5°C 62.4°F16.9°C 85% 3.5 mph NE5.6 kmh NE 3.5 mph5.6 kmh 31.86 in1078.9 mb - 0.00 in0.0 mm 0.02 in0.5 mm
03:15 PM 66.4°F19.1°C 62.1°F16.7°C 86% 3.5 mph NE5.6 kmh NE 3.5 mph5.6 kmh 31.86 in1078.9 mb - 0.00 in0.0 mm 0.02 in0.5 mm
03:20 PM 66.0°F18.9°C 62.0°F16.7°C 87% 2.3 mph E3.7 kmh E 3.5 mph5.6 kmh 31.86 in1078.9 mb - 0.00 in0.0 mm 0.02 in0.5 mm
03:25 PM 66.2°F19.0°C 62.2°F16.8°C 87% 3.5 mph ENE5.6 kmh ENE 3.5 mph5.6 kmh 31.86 in1078.9 mb - 0.00 in0.0 mm 0.02 in0.5 mm
03:30 PM 66.3°F19.1°C 62.3°F16.8°C 87% 3.5 mph ENE5.6 kmh ENE 4.6 mph7.4 kmh 31.86 in1078.9 mb - 0.00 in0.0 mm 0.02 in0.5 mm
03:35 PM 66.8°F19.3°C 63.1°F17.3°C 88% 2.3 mph ENE3.7 kmh ENE 3.5 mph5.6 kmh 31.86 in1078.9 mb - 0.01 in0.3 mm 0.03 in0.8 mm
03:40 PM 67.1°F19.5°C 63.1°F17.3°C 87% 2.3 mph E3.7 kmh E 4.6 mph7.4 kmh 31.86 in1078.9 mb - 0.01 in0.3 mm 0.03 in0.8 mm
03:45 PM 67.2°F19.6°C 62.9°F17.2°C 86% 3.5 mph E5.6 kmh E 3.5 mph5.6 kmh 31.86 in1078.9 mb - 0.01 in0.3 mm 0.03 in0.8 mm
03:50 PM 67.1°F19.5°C 62.4°F16.9°C 85% 3.5 mph NE5.6 kmh NE 3.5 mph5.6 kmh 31.86 in1078.9 mb - 0.01 in0.3 mm 0.03 in0.8 mm
03:55 PM 66.8°F19.3°C 62.5°F16.9°C 86% 3.5 mph ENE5.6 kmh ENE 3.5 mph5.6 kmh 31.86 in1078.9 mb - 0.01 in0.3 mm 0.03 in0.8 mm
04:00 PM 66.8°F19.3°C 62.1°F16.7°C 85% 2.3 mph ENE3.7 kmh ENE 3.5 mph5.6 kmh 31.86 in1078.9 mb - 0.01 in0.3 mm 0.03 in0.8 mm
04:10 PM 66.6°F19.2°C 61.9°F16.6°C 85% 2.3 mph E3.7 kmh E 3.5 mph5.6 kmh 31.86 in1078.9 mb - 0.01 in0.3 mm 0.03 in0.8 mm
04:15 PM 66.8°F19.3°C 62.1°F16.7°C 85% 2.3 mph E3.7 kmh E 2.3 mph3.7 kmh 31.86 in1078.9 mb - 0.01 in0.3 mm 0.03 in0.8 mm
04:20 PM 66.8°F19.3°C 62.1°F16.7°C 85% 2.3 mph ENE3.7 kmh ENE 2.3 mph3.7 kmh 31.86 in1078.9 mb - 0.01 in0.3 mm 0.03 in0.8 mm
04:25 PM 66.8°F19.3°C 62.5°F16.9°C 86% 2.3 mph ENE3.7 kmh ENE 2.3 mph3.7 kmh 31.86 in1078.9 mb - 0.01 in0.3 mm 0.03 in0.8 mm
04:30 PM 66.9°F19.4°C 62.2°F16.8°C 85% 2.3 mph E3.7 kmh E 3.5 mph5.6 kmh 31.86 in1078.9 mb - 0.01 in0.3 mm 0.03 in0.8 mm
04:35 PM 67.1°F19.5°C 62.4°F16.9°C 85% 3.5 mph E5.6 kmh E 3.5 mph5.6 kmh 31.86 in1078.9 mb - 0.01 in0.3 mm 0.03 in0.8 mm
04:40 PM 67.3°F19.6°C 62.6°F17.0°C 85% 2.3 mph E3.7 kmh E 2.3 mph3.7 kmh 31.86 in1078.9 mb - 0.00 in0.0 mm 0.03 in0.8 mm
04:45 PM 67.3°F19.6°C 62.6°F17.0°C 85% 2.3 mph E3.7 kmh E 2.3 mph3.7 kmh 31.86 in1078.9 mb - 0.00 in0.0 mm 0.03 in0.8 mm
04:50 PM 67.3°F19.6°C 62.6°F17.0°C 85% 3.5 mph E5.6 kmh E 3.5 mph5.6 kmh 31.86 in1078.9 mb - 0.00 in0.0 mm 0.03 in0.8 mm
04:55 PM 67.1°F19.5°C 62.4°F16.9°C 85% 2.3 mph E3.7 kmh E 2.3 mph3.7 kmh 31.86 in1078.9 mb - 0.00 in0.0 mm 0.03 in0.8 mm
05:00 PM 66.9°F19.4°C 62.6°F17.0°C 86% 2.3 mph E3.7 kmh E 2.3 mph3.7 kmh 31.86 in1078.9 mb - 0.00 in0.0 mm 0.03 in0.8 mm
05:10 PM 67.1°F19.5°C 62.8°F17.1°C 86% 1.2 mph E1.9 kmh E 2.3 mph3.7 kmh 31.86 in1078.9 mb - 0.00 in0.0 mm 0.03 in0.8 mm
05:15 PM 67.1°F19.5°C 62.8°F17.1°C 86% 2.3 mph E3.7 kmh E 2.3 mph3.7 kmh 31.86 in1078.9 mb - 0.00 in0.0 mm 0.03 in0.8 mm
05:20 PM 67.1°F19.5°C 62.8°F17.1°C 86% 1.2 mph ENE1.9 kmh ENE 1.2 mph1.9 kmh 31.86 in1078.9 mb - 0.00 in0.0 mm 0.03 in0.8 mm
05:25 PM 67.1°F19.5°C 62.8°F17.1°C 86% 1.2 mph NE1.9 kmh NE 2.3 mph3.7 kmh 31.86 in1078.9 mb - 0.00 in0.0 mm 0.03 in0.8 mm
05:30 PM 67.1°F19.5°C 62.8°F17.1°C 86% 1.2 mph E1.9 kmh E 1.2 mph1.9 kmh 31.86 in1078.9 mb - 0.00 in0.0 mm 0.03 in0.8 mm
05:35 PM 66.9°F19.4°C 62.6°F17.0°C 86% 1.2 mph NNE1.9 kmh NNE 3.5 mph5.6 kmh 31.86 in1078.9 mb - 0.00 in0.0 mm 0.03 in0.8 mm
05:40 PM 66.6°F19.2°C 62.3°F16.8°C 86% 4.6 mph N7.4 kmh N 5.8 mph9.3 kmh 31.86 in1078.9 mb - 0.00 in0.0 mm 0.03 in0.8 mm
05:45 PM 66.3°F19.1°C 62.3°F16.8°C 87% 4.6 mph N7.4 kmh N 5.8 mph9.3 kmh 31.86 in1078.9 mb - 0.00 in0.0 mm 0.03 in0.8 mm
05:50 PM 66.0°F18.9°C 62.0°F16.7°C 87% 3.5 mph NE5.6 kmh NE 3.5 mph5.6 kmh 31.86 in1078.9 mb - 0.00 in0.0 mm 0.03 in0.8 mm
05:55 PM 66.0°F18.9°C 62.3°F16.8°C 88% 2.3 mph ENE3.7 kmh ENE 2.3 mph3.7 kmh 31.86 in1078.9 mb - 0.00 in0.0 mm 0.03 in0.8 mm
06:00 PM 65.9°F18.8°C 62.2°F16.8°C 88% Calm Calm -- 31.86 in1078.9 mb - 0.00 in0.0 mm 0.03 in0.8 mm
06:10 PM 65.8°F18.8°C 62.8°F17.1°C 90% Calm Calm -- 31.86 in1078.9 mb - 0.00 in0.0 mm 0.03 in0.8 mm
06:15 PM 65.2°F18.4°C 62.5°F16.9°C 91% 1.2 mph E1.9 kmh E 2.3 mph3.7 kmh 31.86 in1078.9 mb - 0.01 in0.3 mm 0.04 in1.0 mm
06:20 PM 65.0°F18.3°C 62.6°F17.0°C 92% Calm Calm -- 31.86 in1078.9 mb - 0.01 in0.3 mm 0.04 in1.0 mm
06:25 PM 64.4°F18.0°C 62.7°F17.1°C 94% Calm Calm -- 31.86 in1078.9 mb - 0.03 in0.8 mm 0.06 in1.5 mm
06:30 PM 64.3°F17.9°C 62.8°F17.1°C 95% Calm Calm -- 31.86 in1078.9 mb - 0.08 in2.0 mm 0.11 in2.8 mm
06:35 PM 64.1°F17.8°C 62.9°F17.2°C 96% Calm Calm -- 31.86 in1078.9 mb - 0.16 in4.1 mm 0.19 in4.8 mm
06:40 PM 63.9°F17.7°C 63.0°F17.2°C 97% Calm Calm -- 31.86 in1078.9 mb - 0.24 in6.1 mm 0.27 in6.9 mm
06:45 PM 63.4°F17.4°C 63.1°F17.3°C 99% Calm Calm -- 31.86 in1078.9 mb - 0.31 in7.9 mm 0.34 in8.6 mm
06:50 PM 63.2°F17.3°C 62.9°F17.2°C 99% Calm Calm -- 31.86 in1078.9 mb - 0.37 in9.4 mm 0.40 in10.2 mm
06:55 PM 63.0°F17.2°C 62.7°F17.1°C 99% Calm Calm -- 31.86 in1078.9 mb - 0.44 in11.2 mm 0.47 in11.9 mm
07:00 PM 62.8°F17.1°C 62.5°F16.9°C 99% 1.2 mph E1.9 kmh E 1.2 mph1.9 kmh 31.86 in1078.9 mb - 0.52 in13.2 mm 0.55 in14.0 mm
07:10 PM 62.8°F17.1°C 62.5°F16.9°C 99% 2.3 mph E3.7 kmh E 2.3 mph3.7 kmh 31.86 in1078.9 mb - 0.61 in15.5 mm 0.64 in16.3 mm
07:15 PM 63.0°F17.2°C 62.7°F17.1°C 99% 2.3 mph E3.7 kmh E 2.3 mph3.7 kmh 31.86 in1078.9 mb - 0.66 in16.8 mm 0.70 in17.8 mm
07:20 PM 63.0°F17.2°C 62.7°F17.1°C 99% 1.2 mph ESE1.9 kmh ESE 2.3 mph3.7 kmh 31.86 in1078.9 mb - 0.73 in18.5 mm 0.77 in19.6 mm
07:25 PM 63.2°F17.3°C 62.9°F17.2°C 99% Calm Calm 1.2 mph1.9 kmh 31.86 in1078.9 mb - 0.80 in20.3 mm 0.86 in21.8 mm
07:30 PM 63.3°F17.4°C 63.0°F17.2°C 99% 1.2 mph E1.9 kmh E 1.2 mph1.9 kmh 31.86 in1078.9 mb - 0.93 in23.6 mm 1.02 in25.9 mm
07:35 PM 63.3°F17.4°C 63.0°F17.2°C 99% 1.2 mph ESE1.9 kmh ESE 2.3 mph3.7 kmh 31.86 in1078.9 mb - 0.92 in23.4 mm 1.08 in27.4 mm
07:40 PM 63.2°F17.3°C 62.9°F17.2°C 99% 1.2 mph E1.9 kmh E 1.2 mph1.9 kmh 31.86 in1078.9 mb - 0.89 in22.6 mm 1.13 in28.7 mm
07:45 PM 63.2°F17.3°C 62.9°F17.2°C 99% 1.2 mph E1.9 kmh E 1.2 mph1.9 kmh 31.86 in1078.9 mb - 0.84 in21.3 mm 1.17 in29.7 mm
07:50 PM 63.2°F17.3°C 62.9°F17.2°C 99% Calm Calm -- 31.86 in1078.9 mb - 0.82 in20.8 mm 1.20 in30.5 mm
07:55 PM 63.2°F17.3°C 62.9°F17.2°C 99% Calm Calm -- 31.86 in1078.9 mb - 0.76 in19.3 mm 1.22 in31.0 mm
08:00 PM 63.2°F17.3°C 62.9°F17.2°C 99% 2.3 mph E3.7 kmh E 2.3 mph3.7 kmh 31.86 in1078.9 mb - 0.70 in17.8 mm 1.24 in31.5 mm
08:10 PM 63.3°F17.4°C 63.0°F17.2°C 99% 1.2 mph E1.9 kmh E 2.3 mph3.7 kmh 31.86 in1078.9 mb - 0.64 in16.3 mm 1.28 in32.5 mm
08:15 PM 63.3°F17.4°C 63.0°F17.2°C 99% 2.3 mph E3.7 kmh E 3.5 mph5.6 kmh 31.86 in1078.9 mb - 0.62 in15.7 mm 1.30 in33.0 mm
08:20 PM 63.5°F17.5°C 63.2°F17.3°C 99% 2.3 mph E3.7 kmh E 2.3 mph3.7 kmh 31.86 in1078.9 mb - 0.55 in14.0 mm 1.31 in33.3 mm
08:25 PM 63.8°F17.7°C 63.5°F17.5°C 99% 2.3 mph E3.7 kmh E 3.5 mph5.6 kmh 31.86 in1078.9 mb - 0.48 in12.2 mm 1.32 in33.5 mm
08:30 PM 64.1°F17.8°C 63.9°F17.7°C 99% 3.5 mph E5.6 kmh E 3.5 mph5.6 kmh 31.86 in1078.9 mb - 0.32 in8.1 mm 1.33 in33.8 mm
08:35 PM 64.4°F18.0°C 64.1°F17.8°C 99% 3.5 mph E5.6 kmh E 4.6 mph7.4 kmh 31.86 in1078.9 mb - 0.26 in6.6 mm 1.34 in34.0 mm
08:40 PM 64.6°F18.1°C 64.3°F17.9°C 99% 3.5 mph E5.6 kmh E 5.8 mph9.3 kmh 31.86 in1078.9 mb - 0.22 in5.6 mm 1.34 in34.0 mm
08:45 PM 64.6°F18.1°C 64.3°F17.9°C 99% 4.6 mph ESE7.4 kmh ESE 5.8 mph9.3 kmh 31.86 in1078.9 mb - 0.20 in5.1 mm 1.36 in34.5 mm
08:50 PM 64.8°F18.2°C 64.5°F18.1°C 99% 4.6 mph E7.4 kmh E 5.8 mph9.3 kmh 31.86 in1078.9 mb - 0.17 in4.3 mm 1.36 in34.5 mm
08:55 PM 64.8°F18.2°C 64.5°F18.1°C 99% 3.5 mph E5.6 kmh E 4.6 mph7.4 kmh 31.86 in1078.9 mb - 0.15 in3.8 mm 1.37 in34.8 mm
09:00 PM 64.8°F18.2°C 64.5°F18.1°C 99% 4.6 mph SE7.4 kmh SE 5.8 mph9.3 kmh 31.86 in1078.9 mb - 0.14 in3.6 mm 1.38 in35.1 mm
09:10 PM 64.8°F18.2°C 64.5°F18.1°C 99% 4.6 mph E7.4 kmh E 5.8 mph9.3 kmh 31.86 in1078.9 mb - 0.12 in3.0 mm 1.40 in35.6 mm
09:15 PM 64.8°F18.2°C 64.5°F18.1°C 99% 4.6 mph ESE7.4 kmh ESE 5.8 mph9.3 kmh 31.86 in1078.9 mb - 0.11 in2.8 mm 1.40 in35.6 mm
09:20 PM 64.8°F18.2°C 64.5°F18.1°C 99% 4.6 mph ESE7.4 kmh ESE 4.6 mph7.4 kmh 31.86 in1078.9 mb - 0.09 in2.3 mm 1.40 in35.6 mm
09:25 PM 65.0°F18.3°C 64.7°F18.2°C 99% 4.6 mph ESE7.4 kmh ESE 4.6 mph7.4 kmh 31.86 in1078.9 mb - 0.10 in2.5 mm 1.42 in36.1 mm
09:30 PM 65.0°F18.3°C 64.7°F18.2°C 99% 4.6 mph ESE7.4 kmh ESE 4.6 mph7.4 kmh 31.86 in1078.9 mb - 0.09 in2.3 mm 1.42 in36.1 mm
09:35 PM 65.0°F18.3°C 64.7°F18.2°C 99% 4.6 mph E7.4 kmh E 5.8 mph9.3 kmh 31.86 in1078.9 mb - 0.08 in2.0 mm 1.42 in36.1 mm
09:40 PM 65.0°F18.3°C 64.7°F18.2°C 99% 4.6 mph E7.4 kmh E 4.6 mph7.4 kmh 31.86 in1078.9 mb - 0.08 in2.0 mm 1.42 in36.1 mm
09:45 PM 65.0°F18.3°C 64.7°F18.2°C 99% 4.6 mph E7.4 kmh E 6.9 mph11.1 kmh 31.86 in1078.9 mb - 0.07 in1.8 mm 1.42 in36.1 mm
09:50 PM 65.0°F18.3°C 64.7°F18.2°C 99% 3.5 mph E5.6 kmh E 3.5 mph5.6 kmh 31.86 in1078.9 mb - 0.06 in1.5 mm 1.42 in36.1 mm
09:55 PM 65.0°F18.3°C 64.7°F18.2°C 99% 4.6 mph ESE7.4 kmh ESE 5.8 mph9.3 kmh 31.86 in1078.9 mb - 0.05 in1.3 mm 1.42 in36.1 mm
10:00 PM 65.0°F18.3°C 64.7°F18.2°C 99% 4.6 mph ESE7.4 kmh ESE 4.6 mph7.4 kmh 31.86 in1078.9 mb - 0.04 in1.0 mm 1.42 in36.1 mm
10:10 PM 65.1°F18.4°C 64.8°F18.2°C 99% 4.6 mph ESE7.4 kmh ESE 5.8 mph9.3 kmh 31.86 in1078.9 mb - 0.02 in0.5 mm 1.42 in36.1 mm
10:15 PM 65.1°F18.4°C 64.8°F18.2°C 99% 4.6 mph E7.4 kmh E 5.8 mph9.3 kmh 31.86 in1078.9 mb - 0.02 in0.5 mm 1.42 in36.1 mm
10:20 PM 65.1°F18.4°C 64.8°F18.2°C 99% 4.6 mph SE7.4 kmh SE 4.6 mph7.4 kmh 31.86 in1078.9 mb - 0.02 in0.5 mm 1.42 in36.1 mm
10:25 PM 65.1°F18.4°C 64.8°F18.2°C 99% 4.6 mph E7.4 kmh E 4.6 mph7.4 kmh 31.86 in1078.9 mb - 0.00 in0.0 mm 1.42 in36.1 mm
10:30 PM 65.1°F18.4°C 64.8°F18.2°C 99% 3.5 mph E5.6 kmh E 4.6 mph7.4 kmh 31.86 in1078.9 mb - 0.00 in0.0 mm 1.42 in36.1 mm
10:35 PM 65.3°F18.5°C 65.0°F18.3°C 99% 4.6 mph E7.4 kmh E 4.6 mph7.4 kmh 31.86 in1078.9 mb - 0.00 in0.0 mm 1.42 in36.1 mm
10:40 PM 65.3°F18.5°C 65.0°F18.3°C 99% 3.5 mph ESE5.6 kmh ESE 4.6 mph7.4 kmh 31.86 in1078.9 mb - 0.00 in0.0 mm 1.42 in36.1 mm
10:45 PM 65.3°F18.5°C 65.0°F18.3°C 99% 3.5 mph E5.6 kmh E 3.5 mph5.6 kmh 31.86 in1078.9 mb - 0.00 in0.0 mm 1.42 in36.1 mm
10:50 PM 65.5°F18.6°C 65.2°F18.4°C 99% 4.6 mph ESE7.4 kmh ESE 4.6 mph7.4 kmh 31.86 in1078.9 mb - 0.00 in0.0 mm 1.42 in36.1 mm
10:55 PM 65.7°F18.7°C 65.4°F18.6°C 99% 4.6 mph ESE7.4 kmh ESE 5.8 mph9.3 kmh 31.86 in1078.9 mb - 0.01 in0.3 mm 1.43 in36.3 mm
11:00 PM 65.7°F18.7°C 65.4°F18.6°C 99% 4.6 mph E7.4 kmh E 4.6 mph7.4 kmh 31.86 in1078.9 mb - 0.01 in0.3 mm 15.89 in403.6 mm
11:10 PM 65.3°F18.5°C 65.0°F18.3°C 99% 3.5 mph E5.6 kmh E 3.5 mph5.6 kmh 31.86 in1078.9 mb - 0.01 in0.3 mm 15.90 in403.9 mm
11:15 PM 65.1°F18.4°C 64.8°F18.2°C 99% 4.6 mph E7.4 kmh E 6.9 mph11.1 kmh 31.86 in1078.9 mb - 0.01 in0.3 mm 15.91 in404.1 mm
11:20 PM 65.0°F18.3°C 64.7°F18.2°C 99% 3.5 mph SE5.6 kmh SE 3.5 mph5.6 kmh 31.86 in1078.9 mb - 0.01 in0.3 mm 15.92 in404.4 mm
11:25 PM 65.0°F18.3°C 64.7°F18.2°C 99% 3.5 mph E5.6 kmh E 3.5 mph5.6 kmh 31.86 in1078.9 mb - 0.01 in0.3 mm 15.93 in404.6 mm
11:30 PM 65.0°F18.3°C 64.7°F18.2°C 99% 3.5 mph ENE5.6 kmh ENE 4.6 mph7.4 kmh 31.86 in1078.9 mb - 0.01 in0.3 mm 15.94 in404.9 mm
11:35 PM 65.0°F18.3°C 64.7°F18.2°C 99% 2.3 mph E3.7 kmh E 3.5 mph5.6 kmh 31.86 in1078.9 mb - 0.01 in0.3 mm 15.95 in405.1 mm
11:40 PM 65.0°F18.3°C 64.7°F18.2°C 99% 3.5 mph E5.6 kmh E 5.8 mph9.3 kmh 31.86 in1078.9 mb - 0.01 in0.3 mm 15.96 in405.4 mm
11:45 PM 65.1°F18.4°C 64.8°F18.2°C 99% 2.3 mph E3.7 kmh E 5.8 mph9.3 kmh 31.86 in1078.9 mb - 0.01 in0.3 mm 15.97 in405.6 mm
11:50 PM 65.1°F18.4°C 64.8°F18.2°C 99% 2.3 mph ENE3.7 kmh ENE 3.5 mph5.6 kmh 31.86 in1078.9 mb - 0.01 in0.3 mm 15.98 in405.9 mm
11:55 PM 65.1°F18.4°C 64.8°F18.2°C 99% 2.3 mph SE3.7 kmh SE 3.5 mph5.6 kmh 31.86 in1078.9 mb - 0.01 in0.3 mm 15.99 in406.1 mm